createdAt,value
2023-05-12T00:00:47.632Z,1.77
2023-05-12T00:03:14.717Z,1.80
2023-05-12T00:05:46.464Z,1.70
2023-05-12T00:08:13.226Z,1.40
2023-05-12T00:10:42.181Z,1.60
2023-05-12T00:13:09.600Z,1.90
2023-05-12T00:15:39.363Z,1.60
2023-05-12T00:18:10.534Z,1.90
2023-05-12T00:20:37.919Z,1.73
2023-05-12T00:23:04.672Z,1.50
2023-05-12T00:25:33.737Z,1.65
2023-05-12T00:28:00.516Z,1.60
2023-05-12T00:30:27.646Z,1.40
2023-05-12T00:32:54.458Z,1.50
2023-05-12T00:35:21.307Z,1.50
2023-05-12T00:37:48.029Z,1.63
2023-05-12T00:40:14.736Z,1.50
2023-05-12T00:42:44.055Z,1.33
2023-05-12T00:45:11.221Z,1.50
2023-05-12T00:47:38.161Z,1.40
2023-05-12T00:50:08.406Z,1.60
2023-05-12T00:52:35.999Z,1.60
2023-05-12T00:55:03.588Z,1.53
2023-05-12T00:57:32.680Z,1.88
2023-05-12T00:59:59.450Z,1.53
2023-05-12T01:02:26.398Z,1.60
2023-05-12T01:04:53.257Z,1.70
2023-05-12T01:07:22.640Z,1.40
2023-05-12T01:09:57.242Z,1.63
2023-05-12T01:12:27.238Z,1.50
2023-05-12T01:14:55.865Z,1.60
2023-05-12T01:17:29.311Z,1.60
2023-05-12T01:20:01.604Z,1.50
2023-05-12T01:22:33.566Z,1.60
2023-05-12T01:25:04.187Z,1.43
2023-05-12T01:27:37.031Z,1.67
2023-05-12T01:30:09.889Z,2.20
2023-05-12T01:32:38.399Z,3.50
2023-05-12T01:35:05.538Z,2.90
2023-05-12T01:37:32.479Z,2.63
2023-05-12T01:40:01.775Z,3.40
2023-05-12T01:42:30.846Z,3.57
2023-05-12T01:44:57.509Z,3.03
2023-05-12T01:47:26.669Z,3.70
2023-05-12T01:49:54.348Z,3.27
2023-05-12T01:52:21.025Z,2.90
2023-05-12T01:54:51.339Z,3.50
2023-05-12T01:57:18.437Z,3.73
2023-05-12T01:59:47.546Z,3.67
2023-05-12T02:02:14.485Z,3.13
2023-05-12T02:04:43.611Z,3.30
2023-05-12T02:07:15.713Z,3.27
2023-05-12T02:09:44.664Z,3.10
2023-05-12T02:12:11.598Z,3.10
2023-05-12T02:14:43.006Z,2.80
2023-05-12T02:17:09.725Z,2.60
2023-05-12T02:19:36.469Z,1.97
2023-05-12T02:22:05.880Z,2.20
2023-05-12T02:24:32.657Z,2.13
2023-05-12T02:26:59.320Z,2.10
2023-05-12T02:29:26.097Z,2.07
2023-05-12T02:31:52.872Z,1.87
2023-05-12T02:34:21.890Z,1.93
2023-05-12T02:36:48.632Z,1.73
2023-05-12T02:39:17.778Z,1.67
2023-05-12T02:41:44.513Z,1.90
2023-05-12T02:44:11.258Z,1.77
2023-05-12T02:46:37.947Z,1.70
2023-05-12T02:49:09.854Z,1.70
2023-05-12T02:51:36.496Z,1.60
2023-05-12T02:54:03.309Z,1.73
2023-05-12T02:56:33.917Z,2.07
2023-05-12T02:59:01.052Z,1.80
2023-05-12T03:01:29.927Z,1.70
2023-05-12T03:03:57.124Z,1.50
2023-05-12T03:06:23.980Z,1.70
2023-05-12T03:08:50.686Z,1.90
2023-05-12T03:11:19.665Z,1.70
2023-05-12T03:13:46.448Z,1.70
2023-05-12T03:16:13.192Z,1.67
2023-05-12T03:18:42.103Z,1.80
2023-05-12T03:21:08.808Z,1.90
2023-05-12T03:23:42.682Z,1.80
2023-05-12T03:26:09.321Z,1.70
2023-05-12T03:28:36.367Z,1.83
2023-05-12T03:31:05.864Z,1.67
2023-05-12T03:33:33.066Z,1.57
2023-05-12T03:36:00.187Z,1.80
2023-05-12T03:38:27.283Z,1.70
2023-05-12T03:41:03.777Z,1.70
2023-05-12T03:43:30.872Z,1.73
2023-05-12T03:45:57.989Z,1.60
2023-05-12T03:48:25.824Z,1.60
2023-05-12T03:50:52.900Z,1.63
2023-05-12T03:53:19.988Z,1.80
2023-05-12T03:55:47.233Z,1.70
2023-05-12T03:58:14.305Z,2.00
2023-05-12T04:00:40.982Z,1.70
2023-05-12T04:03:10.323Z,1.60
2023-05-12T04:05:39.441Z,1.57
2023-05-12T04:08:06.637Z,1.33
2023-05-12T04:10:33.807Z,1.70
2023-05-12T04:13:00.871Z,1.75
2023-05-12T04:15:28.362Z,1.90
2023-05-12T04:17:57.712Z,1.60
2023-05-12T04:20:24.926Z,1.60
2023-05-12T04:22:52.066Z,1.67
2023-05-12T04:25:19.138Z,1.60
2023-05-12T04:27:46.190Z,1.63
2023-05-12T04:30:13.318Z,1.58
2023-05-12T04:32:40.117Z,1.80
2023-05-12T04:35:12.456Z,1.60
2023-05-12T04:37:39.149Z,1.80
2023-05-12T04:40:07.273Z,1.47
2023-05-12T04:42:37.245Z,1.70
2023-05-12T04:45:07.086Z,1.80
2023-05-12T04:47:33.804Z,1.50
2023-05-12T04:50:01.026Z,1.70
2023-05-12T04:52:27.770Z,1.60
2023-05-12T04:54:54.422Z,1.90
2023-05-12T04:57:21.264Z,2.00
2023-05-12T04:59:50.260Z,1.70
2023-05-12T05:02:19.226Z,2.00
2023-05-12T05:04:45.977Z,1.97
2023-05-12T05:07:15.067Z,2.03
2023-05-12T05:09:42.191Z,1.90
2023-05-12T05:12:08.975Z,2.53
2023-05-12T05:14:38.969Z,2.33
2023-05-12T05:17:07.903Z,2.30
2023-05-12T05:19:50.762Z,2.37
2023-05-12T05:22:21.283Z,2.40
2023-05-12T05:24:48.060Z,2.00
2023-05-12T05:27:16.981Z,2.00
2023-05-12T05:29:43.633Z,1.80
2023-05-12T05:32:12.910Z,2.00
2023-05-12T05:34:42.204Z,1.98
2023-05-12T05:37:11.161Z,1.93
2023-05-12T05:39:38.056Z,1.80
2023-05-12T05:42:04.901Z,2.23
2023-05-12T05:44:31.572Z,1.87
2023-05-12T05:46:58.743Z,2.08
2023-05-12T05:49:25.884Z,1.63
2023-05-12T05:51:52.538Z,1.60
2023-05-12T05:54:19.194Z,1.77
2023-05-12T05:56:48.334Z,1.97
2023-05-12T05:59:17.456Z,2.13
2023-05-12T06:01:45.473Z,2.10
2023-05-12T06:04:12.256Z,1.93
2023-05-12T06:06:38.989Z,1.80
2023-05-12T06:09:05.739Z,2.07
2023-05-12T06:11:34.542Z,2.20
2023-05-12T06:14:03.309Z,2.20
2023-05-12T06:16:30.473Z,2.20
2023-05-12T06:18:59.635Z,2.60
2023-05-12T06:21:26.680Z,2.40
2023-05-12T06:23:56.062Z,2.73
2023-05-12T06:26:25.478Z,2.40
2023-05-12T06:28:56.971Z,2.73
2023-05-12T06:31:23.794Z,2.80
2023-05-12T06:33:50.745Z,2.63
2023-05-12T06:36:17.466Z,2.67
2023-05-12T06:38:44.186Z,2.60
2023-05-12T06:41:13.271Z,2.83
2023-05-12T06:43:40.306Z,2.30
2023-05-12T06:46:07.112Z,2.70
2023-05-12T06:48:34.230Z,2.85
2023-05-12T06:51:00.960Z,2.83
2023-05-12T06:53:28.117Z,3.10
2023-05-12T06:55:55.196Z,3.13
2023-05-12T06:58:22.158Z,3.13
2023-05-12T07:00:48.969Z,3.47
2023-05-12T07:03:15.918Z,3.90
2023-05-12T07:05:43.179Z,3.53
2023-05-12T07:08:10.421Z,3.33
2023-05-12T07:10:37.949Z,3.33
2023-05-12T07:13:04.886Z,3.80
2023-05-12T07:15:32.853Z,3.80
2023-05-12T07:17:59.960Z,3.58
2023-05-12T07:20:27.148Z,3.47
2023-05-12T07:22:54.708Z,3.20
2023-05-12T07:25:23.764Z,3.27
2023-05-12T07:27:55.077Z,2.83
2023-05-12T07:30:22.496Z,5.60
2023-05-12T07:32:49.899Z,5.53
2023-05-12T07:35:17.234Z,4.77
2023-05-12T07:37:44.087Z,4.90
2023-05-12T07:40:11.120Z,4.23
2023-05-12T07:42:39.232Z,3.50
2023-05-12T07:45:06.338Z,4.40
2023-05-12T07:47:33.061Z,4.30
2023-05-12T07:49:59.804Z,3.72
2023-05-12T07:52:26.707Z,3.20
2023-05-12T07:54:53.986Z,2.70
2023-05-12T07:57:23.034Z,3.63
2023-05-12T07:59:52.572Z,4.37
2023-05-12T08:02:20.653Z,3.50
2023-05-12T08:04:49.616Z,2.80
2023-05-12T08:07:21.271Z,3.27
2023-05-12T08:09:50.556Z,3.13
2023-05-12T08:12:17.211Z,3.30
2023-05-12T08:14:43.825Z,3.10
2023-05-12T08:17:12.940Z,2.90
2023-05-12T08:19:39.718Z,3.23
2023-05-12T08:22:06.818Z,3.05
2023-05-12T08:24:33.474Z,2.60
2023-05-12T08:27:02.531Z,3.50
2023-05-12T08:29:29.367Z,3.37
2023-05-12T08:31:59.103Z,3.73
2023-05-12T08:34:28.860Z,4.53
2023-05-12T08:36:55.667Z,3.27
2023-05-12T08:39:22.461Z,3.10
2023-05-12T08:42:09.227Z,3.42
2023-05-12T08:44:37.555Z,2.90
2023-05-12T08:47:09.435Z,2.70
2023-05-12T08:49:39.624Z,3.00
2023-05-12T08:52:11.763Z,2.73
2023-05-12T08:54:52.384Z,2.03
2023-05-12T08:57:23.606Z,2.47
2023-05-12T08:59:53.021Z,2.07
2023-05-12T09:02:29.366Z,2.10
2023-05-12T09:05:02.080Z,1.90
2023-05-12T09:07:30.930Z,1.90
2023-05-12T09:10:04.340Z,1.80
2023-05-12T09:12:36.107Z,2.07
2023-05-12T09:15:11.149Z,1.80
2023-05-12T09:17:40.715Z,1.47
2023-05-12T09:20:13.128Z,1.50
2023-05-12T09:22:46.793Z,1.60
2023-05-12T09:25:21.752Z,1.35
2023-05-12T09:27:50.130Z,1.67
2023-05-12T09:30:28.355Z,1.20
2023-05-12T09:33:14.293Z,1.10
2023-05-12T09:35:45.881Z,1.10
2023-05-12T09:38:14.601Z,0.80
2023-05-12T09:40:43.881Z,0.80
2023-05-12T09:43:15.590Z,1.17
2023-05-12T09:45:47.423Z,0.90
2023-05-12T09:48:14.574Z,1.00
2023-05-12T09:50:52.715Z,1.23
2023-05-12T09:53:23.245Z,1.20
2023-05-12T09:55:52.804Z,1.30
2023-05-12T09:58:23.741Z,1.60
2023-05-12T10:01:20.885Z,1.70
2023-05-12T10:03:55.023Z,1.50
2023-05-12T10:06:30.315Z,1.40
2023-05-12T10:09:21.235Z,1.40
2023-05-12T10:11:52.820Z,1.50
2023-05-12T10:14:22.505Z,1.10
2023-05-12T10:16:52.731Z,1.30
2023-05-12T10:19:20.559Z,1.30
2023-05-12T10:21:48.389Z,0.90
2023-05-12T10:24:18.721Z,0.93
2023-05-12T10:26:45.638Z,1.20
2023-05-12T10:29:13.576Z,0.80
2023-05-12T10:31:41.287Z,1.10
2023-05-12T10:34:15.995Z,1.00
2023-05-12T10:36:54.287Z,0.90
2023-05-12T10:39:27.453Z,0.93
2023-05-12T10:42:02.371Z,0.80
2023-05-12T10:44:31.575Z,1.00
2023-05-12T10:47:02.171Z,1.63
2023-05-12T10:49:39.453Z,1.70
2023-05-12T10:52:11.850Z,2.10
2023-05-12T10:54:44.411Z,2.47
2023-05-12T10:57:20.986Z,2.90
2023-05-12T10:59:53.258Z,2.77
2023-05-12T11:02:26.515Z,3.33
2023-05-12T11:05:04.389Z,2.80
2023-05-12T11:07:35.532Z,3.10
2023-05-12T11:10:08.037Z,2.30
2023-05-12T11:12:37.827Z,1.80
2023-05-12T11:15:08.418Z,3.43
2023-05-12T11:17:42.104Z,4.07
2023-05-12T11:20:12.601Z,4.37
2023-05-12T11:22:42.697Z,2.87
2023-05-12T11:25:11.275Z,2.70
2023-05-12T11:27:50.654Z,2.60
2023-05-12T11:30:20.102Z,3.93
2023-05-12T11:32:59.466Z,4.97
2023-05-12T11:35:31.461Z,2.97
2023-05-12T11:37:58.313Z,3.05
2023-05-12T11:40:25.552Z,2.53
2023-05-12T11:42:56.201Z,2.57
2023-05-12T11:45:28.855Z,2.60
2023-05-12T11:48:08.828Z,3.13
2023-05-12T11:50:41.186Z,2.20
2023-05-12T11:53:14.499Z,2.60
2023-05-12T11:56:07.718Z,1.83
2023-05-12T11:58:35.637Z,1.93
2023-05-12T12:01:13.962Z,2.03
2023-05-12T12:03:51.061Z,2.00
2023-05-12T12:06:18.594Z,2.00
2023-05-12T12:09:00.104Z,2.27
2023-05-12T12:11:30.685Z,3.03
2023-05-12T12:13:57.703Z,1.87
2023-05-12T12:16:25.781Z,1.70
2023-05-12T12:18:53.226Z,1.80
2023-05-12T12:21:21.581Z,1.70
2023-05-12T12:23:51.403Z,2.70
2023-05-12T12:26:22.898Z,1.70
2023-05-12T12:28:52.496Z,1.70
2023-05-12T12:31:19.759Z,1.60
2023-05-12T12:33:48.897Z,1.50
2023-05-12T12:36:20.267Z,1.50
2023-05-12T12:38:47.568Z,1.63
2023-05-12T12:41:14.285Z,1.13
2023-05-12T12:43:44.577Z,1.07
2023-05-12T12:46:12.425Z,2.03
2023-05-12T12:48:39.655Z,1.40
2023-05-12T12:51:07.309Z,1.33
2023-05-12T12:53:37.690Z,1.33
2023-05-12T12:56:07.714Z,1.30
2023-05-12T12:58:37.074Z,1.30
2023-05-12T13:01:04.086Z,1.30
2023-05-12T13:03:30.890Z,1.47
2023-05-12T13:05:58.365Z,1.40
2023-05-12T13:08:25.363Z,1.50
2023-05-12T13:10:54.767Z,1.40
2023-05-12T13:13:21.430Z,1.30
2023-05-12T13:15:51.497Z,1.30
2023-05-12T13:18:20.729Z,1.20
2023-05-12T13:20:47.591Z,1.33
2023-05-12T13:23:14.931Z,1.20
2023-05-12T13:25:41.716Z,1.13
2023-05-12T13:28:08.438Z,1.00
2023-05-12T13:30:35.674Z,1.10
2023-05-12T13:33:05.099Z,1.20
2023-05-12T13:35:35.034Z,1.20
2023-05-12T13:38:02.353Z,1.20
2023-05-12T13:40:29.376Z,1.10
2023-05-12T13:42:56.477Z,1.10
2023-05-12T13:45:23.812Z,1.10
2023-05-12T13:47:50.898Z,1.20
2023-05-12T13:50:18.039Z,1.00
2023-05-12T13:52:45.416Z,1.10
2023-05-12T13:55:20.264Z,1.20
2023-05-12T13:57:48.299Z,1.17
2023-05-12T14:00:17.258Z,0.80
2023-05-12T14:02:44.402Z,1.10
2023-05-12T14:05:13.800Z,1.10
2023-05-12T14:07:42.904Z,1.10
2023-05-12T14:10:10.286Z,1.10
2023-05-12T14:12:41.223Z,0.80
2023-05-12T14:15:26.060Z,1.10
2023-05-12T14:17:58.498Z,0.77
2023-05-12T14:20:25.590Z,0.80
2023-05-12T14:22:55.516Z,0.70
2023-05-12T14:25:23.834Z,0.80
2023-05-12T14:27:50.856Z,0.80
2023-05-12T14:30:17.908Z,0.83
2023-05-12T14:32:45.457Z,0.70
2023-05-12T14:35:14.682Z,0.60
2023-05-12T14:37:41.747Z,0.70
2023-05-12T14:40:09.518Z,0.77
2023-05-12T14:42:36.240Z,0.60
2023-05-12T14:45:03.459Z,0.60
2023-05-12T14:47:30.183Z,0.60
2023-05-12T14:49:57.245Z,0.67
2023-05-12T14:52:24.090Z,0.80
2023-05-12T14:54:50.757Z,0.77
2023-05-12T14:57:17.470Z,0.67
2023-05-12T14:59:44.613Z,0.90
2023-05-12T15:02:11.797Z,0.90
2023-05-12T15:04:38.515Z,1.10
2023-05-12T15:07:06.353Z,1.00
2023-05-12T15:09:33.026Z,1.20
2023-05-12T15:12:03.833Z,1.10
2023-05-12T15:14:33.171Z,1.20
2023-05-12T15:17:00.310Z,1.40
2023-05-12T15:19:29.195Z,1.40
2023-05-12T15:21:55.861Z,1.40
2023-05-12T15:24:25.060Z,1.67
2023-05-12T15:26:51.807Z,1.70
2023-05-12T15:29:21.373Z,1.40
2023-05-12T15:31:51.273Z,1.60
2023-05-12T15:34:18.205Z,1.75
2023-05-12T15:36:45.706Z,1.50
2023-05-12T15:39:16.094Z,1.53
2023-05-12T15:41:43.548Z,1.50
2023-05-12T15:44:17.159Z,2.05
2023-05-12T15:46:46.364Z,1.60
2023-05-12T15:49:15.341Z,1.70
2023-05-12T15:51:42.066Z,1.77
2023-05-12T15:54:09.726Z,1.80
2023-05-12T15:56:37.438Z,1.83
2023-05-12T15:59:07.334Z,1.70
2023-05-12T16:01:34.185Z,1.50
2023-05-12T16:04:01.474Z,1.88
2023-05-12T16:06:32.733Z,1.60
2023-05-12T16:09:02.021Z,1.93
2023-05-12T16:11:31.569Z,1.80
2023-05-12T16:14:03.313Z,2.30
2023-05-12T16:16:30.869Z,2.03
2023-05-12T16:18:57.864Z,2.10
2023-05-12T16:21:27.114Z,1.83
2023-05-12T16:23:55.949Z,1.73
2023-05-12T16:26:23.869Z,2.37
2023-05-12T16:28:53.888Z,1.90
2023-05-12T16:31:25.503Z,2.17
2023-05-12T16:33:52.409Z,2.13
2023-05-12T16:36:19.769Z,1.90
2023-05-12T16:38:47.193Z,2.07
2023-05-12T16:41:16.195Z,1.47
2023-05-12T16:43:43.294Z,1.80
2023-05-12T16:46:10.283Z,2.37
2023-05-12T16:48:37.022Z,1.90
2023-05-12T16:51:09.131Z,2.03
2023-05-12T16:53:37.742Z,1.70
2023-05-12T16:56:04.603Z,2.20
2023-05-12T16:58:33.733Z,2.13
2023-05-12T17:01:01.598Z,2.20
2023-05-12T17:03:31.578Z,2.10
2023-05-12T17:06:00.913Z,1.92
2023-05-12T17:08:29.746Z,2.03
2023-05-12T17:10:56.769Z,2.00
2023-05-12T17:13:23.441Z,2.10
2023-05-12T17:15:51.073Z,1.93
2023-05-12T17:18:18.118Z,2.00
2023-05-12T17:20:44.894Z,2.00
2023-05-12T17:23:12.690Z,2.03
2023-05-12T17:25:40.411Z,2.07
2023-05-12T17:28:10.800Z,2.00
2023-05-12T17:30:37.854Z,2.17
2023-05-12T17:33:05.150Z,2.30
2023-05-12T17:35:32.645Z,2.13
2023-05-12T17:38:02.118Z,2.30
2023-05-12T17:40:31.367Z,1.93
2023-05-12T17:42:58.064Z,1.73
2023-05-12T17:45:27.699Z,2.10
2023-05-12T17:47:55.395Z,1.97
2023-05-12T17:50:22.264Z,1.87
2023-05-12T17:52:51.862Z,2.10
2023-05-12T17:55:19.127Z,1.83
2023-05-12T17:57:46.695Z,2.07
2023-05-12T18:00:14.526Z,1.93
2023-05-12T18:02:41.626Z,1.80
2023-05-12T18:05:09.249Z,1.73
2023-05-12T18:07:38.371Z,1.90
2023-05-12T18:10:11.103Z,1.70
2023-05-12T18:12:38.797Z,1.80
2023-05-12T18:15:06.359Z,1.83
2023-05-12T18:17:33.186Z,1.97
2023-05-12T18:20:00.903Z,2.10
2023-05-12T18:22:27.657Z,2.15
2023-05-12T18:24:54.540Z,1.97
2023-05-12T18:27:21.263Z,1.67
2023-05-12T18:29:48.093Z,1.77
2023-05-12T18:32:14.827Z,1.90
2023-05-12T18:34:47.218Z,2.13
2023-05-12T18:37:18.769Z,1.60
2023-05-12T18:39:48.168Z,1.77
2023-05-12T18:42:14.868Z,1.80
2023-05-12T18:44:42.255Z,1.80
2023-05-12T18:47:09.289Z,1.70
2023-05-12T18:49:38.280Z,1.70
2023-05-12T18:52:05.273Z,1.83
2023-05-12T18:54:31.942Z,1.70
2023-05-12T18:56:59.053Z,1.80
2023-05-12T18:59:25.823Z,2.20
2023-05-12T19:01:53.067Z,2.00
2023-05-12T19:04:21.855Z,1.97
2023-05-12T19:06:55.743Z,1.70
2023-05-12T19:09:27.458Z,1.70
2023-05-12T19:11:58.671Z,1.77
2023-05-12T19:14:27.607Z,1.63
2023-05-12T19:16:56.534Z,1.60
2023-05-12T19:19:23.547Z,1.58
2023-05-12T19:21:50.747Z,1.40
2023-05-12T19:24:20.391Z,1.23
2023-05-12T19:26:47.491Z,1.97
2023-05-12T19:29:14.386Z,1.73
2023-05-12T19:31:43.778Z,1.77
2023-05-12T19:34:13.294Z,1.43
2023-05-12T19:36:40.123Z,1.60
2023-05-12T19:39:09.005Z,1.60
2023-05-12T19:41:35.787Z,1.70
2023-05-12T19:44:02.570Z,1.43
2023-05-12T19:46:36.288Z,1.50
2023-05-12T19:49:06.040Z,1.70
2023-05-12T19:51:37.762Z,1.63
2023-05-12T19:54:06.486Z,1.47
2023-05-12T19:56:33.306Z,1.40
2023-05-12T19:59:00.754Z,1.57
2023-05-12T20:01:27.923Z,1.50
2023-05-12T20:03:54.626Z,1.40
2023-05-12T20:06:22.432Z,1.40
2023-05-12T20:08:49.599Z,1.90
2023-05-12T20:11:16.369Z,1.70
2023-05-12T20:13:43.078Z,1.60
2023-05-12T20:16:10.061Z,1.53
2023-05-12T20:18:40.360Z,1.47
2023-05-12T20:21:09.229Z,1.40
2023-05-12T20:23:40.687Z,1.60
2023-05-12T20:26:07.561Z,1.43
2023-05-12T20:28:34.345Z,1.73
2023-05-12T20:31:04.141Z,1.67
2023-05-12T20:33:33.037Z,1.40
2023-05-12T20:35:59.749Z,1.40
2023-05-12T20:38:29.068Z,1.60
2023-05-12T20:40:55.789Z,1.50
2023-05-12T20:43:22.994Z,1.60
2023-05-12T20:45:49.690Z,1.50
2023-05-12T20:48:16.475Z,1.60
2023-05-12T20:50:47.764Z,1.63
2023-05-12T20:53:15.050Z,1.57
2023-05-12T20:55:43.125Z,1.40
2023-05-12T20:58:10.189Z,1.40
2023-05-12T21:00:41.725Z,1.58
2023-05-12T21:03:14.268Z,1.33
2023-05-12T21:05:47.897Z,1.70
2023-05-12T21:08:15.048Z,1.43
2023-05-12T21:10:41.783Z,1.50
2023-05-12T21:13:08.860Z,1.50
2023-05-12T21:15:35.961Z,1.60
2023-05-12T21:18:08.882Z,1.73
2023-05-12T21:20:35.795Z,1.33
2023-05-12T21:23:03.231Z,1.60
2023-05-12T21:25:32.812Z,1.50
2023-05-12T21:27:59.525Z,1.53
2023-05-12T21:30:26.335Z,1.40
2023-05-12T21:32:53.081Z,1.40
2023-05-12T21:35:22.530Z,1.50
2023-05-12T21:37:49.689Z,1.40
2023-05-12T21:40:21.546Z,1.33
2023-05-12T21:42:51.335Z,1.50
2023-05-12T21:45:20.363Z,1.57
2023-05-12T21:47:50.041Z,1.30
2023-05-12T21:50:17.987Z,1.40
2023-05-12T21:52:44.949Z,1.40
2023-05-12T21:55:12.729Z,1.13
2023-05-12T21:57:42.306Z,1.37
2023-05-12T22:00:10.734Z,1.45
2023-05-12T22:02:37.871Z,1.30
2023-05-12T22:05:05.521Z,1.30
2023-05-12T22:07:32.462Z,1.10
2023-05-12T22:09:59.460Z,1.20
2023-05-12T22:12:26.125Z,1.23
2023-05-12T22:14:53.165Z,1.10
2023-05-12T22:17:19.827Z,1.20
2023-05-12T22:19:49.071Z,1.20
2023-05-12T22:22:16.260Z,1.27
2023-05-12T22:24:45.335Z,1.00
2023-05-12T22:27:14.282Z,1.17
2023-05-12T22:29:40.952Z,1.00
2023-05-12T22:32:07.643Z,1.00
2023-05-12T22:34:34.421Z,1.50
2023-05-12T22:37:01.102Z,1.00
2023-05-12T22:39:30.237Z,1.20
2023-05-12T22:42:03.073Z,1.10
2023-05-12T22:44:29.837Z,1.20
2023-05-12T22:46:56.604Z,1.03
2023-05-12T22:49:25.674Z,1.17
2023-05-12T22:51:52.418Z,1.17
2023-05-12T22:54:19.123Z,1.10
2023-05-12T22:56:48.328Z,1.07
2023-05-12T22:59:15.034Z,0.93
2023-05-12T23:01:44.513Z,1.00
2023-05-12T23:04:11.223Z,1.15
2023-05-12T23:06:40.502Z,0.90
2023-05-12T23:09:07.230Z,1.30
2023-05-12T23:11:36.408Z,1.10
2023-05-12T23:14:08.791Z,1.20
2023-05-12T23:16:38.204Z,1.00
2023-05-12T23:19:05.031Z,1.20
2023-05-12T23:21:31.890Z,0.95
2023-05-12T23:24:01.115Z,1.07
2023-05-12T23:26:28.384Z,1.00
2023-05-12T23:28:55.552Z,1.30
2023-05-12T23:31:22.380Z,1.20
2023-05-12T23:33:49.221Z,1.23
2023-05-12T23:36:15.948Z,1.10
2023-05-12T23:38:44.960Z,1.00
2023-05-12T23:41:11.658Z,1.20
2023-05-12T23:43:39.016Z,1.20
2023-05-12T23:46:06.037Z,0.77
2023-05-12T23:48:37.334Z,1.10
2023-05-12T23:51:06.256Z,1.33
2023-05-12T23:53:35.127Z,0.90
2023-05-12T23:56:04.421Z,1.10
2023-05-12T23:58:33.286Z,1.10
